Dayton, Ohio
Current Conditions -  °F | °C
As of 1:58 PM on Friday 24 Oct 2014 (Local Time) from KFFO Reporting Station
Clear Clear  
Wind Chill: 16°   Ceiling: Unl
Heat Index: 16°   Visibility: 10mi
Dew Point:   Wind: 5mph
Humidity: 48%   Direction: NA
Pressure: 30.07"   Gusts: NA
Location:  39.76°N, 84.19°W
Report Text: KFFO 241758Z AUTO VRB04KT 10SM CLR 16/05 A3007 RMK AO2 SLP187 57016
Loading
Personal Weather Stations






























Interactive Weather Map
Tropical Storm Tracking
New forecast layout! Learn more

10-Day Weather Forecast

Advertisements
Track Severe Weather on mobile